Captain W. D. Haden — WCQ5440 — position and weather

sailwx.info

Track history (hours):
 
Tides and Currents Weather Stations Pressure Air Temp Water Temp Dewpoint Dewpoint Depression Visibility Wind Speed Wind Dir Waves Ship Positions

Captain W. D. Haden

Owner: G & H Towing Company, GALVESTON, TX. More information available from US FCC via Universal Licensing System and Coast Guard Vessel Documentation Center.

Last reported at 2018-May-21 22:06 UTC. Time now 2018-May-21 22:31 UTC.
Position N 29°45' W 095°10'.

Length 30 m; draft 6 m.

Type: Tug. MMSI: 366921540.

Date/timePositionNaut miles runAvg speedWind from/ knotsBaromVisibWave heightAir tempDewpointWater temp
2018-May-21 22:06N 29°45' W 095°10'0 1.7
2018-May-21 21:59N 29°45' W 095°10'0 0.2
2018-May-21 21:29N 29°45' W 095°10'0 0.4
2018-May-21 20:39N 29°45' W 095°10'0 1.9
2018-May-21 20:30N 29°45' W 095°11'1 1.2
2018-May-21 19:48N 29°45' W 095°10'1 0.2
2018-May-21 14:01N 29°44' W 095°09'0 8.3
2018-May-21 13:59N 29°44' W 095°09'4 2.8
2018-May-21 12:32N 29°44' W 095°14'0 6.7
2018-May-21 12:30N 29°44' W 095°13'3 0.5
2018-May-21 06:42N 29°45' W 095°11'0 0.1
2018-May-21 03:31N 29°45' W 095°10'0 0.0
2018-May-21 03:22N 29°45' W 095°10'3 0.9
2018-May-21 00:28N 29°44' W 095°13'1 1.7
2018-May-20 23:59N 29°43' W 095°14'2 0.6
2018-May-20 20:18N 29°44' W 095°12'1 0.3
2018-May-20 16:05N 29°45' W 095°10'1 7.1
2018-May-20 16:00N 29°45' W 095°10'3 2.4
2018-May-20 14:49N 29°45' W 095°07'0 0.0
2018-May-20 14:29N 29°45' W 095°07'0 0.0
2018-May-20 12:30N 29°45' W 095°07'0 0.0
2018-May-20 07:47N 29°44' W 095°07'0 0.1
2018-May-20 06:38N 29°45' W 095°07'0 0.0
2018-May-20 04:48N 29°44' W 095°07'0 0.0
2018-May-20 00:38N 29°44' W 095°07'2 8.2
2018-May-20 00:25N 29°44' W 095°09'3 2.0
2018-May-19 22:59N 29°44' W 095°12'1 2.7
2018-May-19 22:28N 29°45' W 095°10'0 0.0
2018-May-19 20:02N 29°45' W 095°10'0 0.9
2018-May-19 19:59N 29°45' W 095°11'3 2.3
2018-May-19 18:44N 29°44' W 095°07'3 0.4
2018-May-19 11:47N 29°46' W 095°05'3 8.7
2018-May-19 11:30N 29°44' W 095°03'4 7.9
2018-May-19 11:00N 29°42' W 094°59'5 9.6
2018-May-19 10:31N 29°37' W 094°57'4 6.9
2018-May-19 09:59N 29°37' W 095°02'0 0.0
2018-May-19 09:30N 29°37' W 095°02'1 1.4
2018-May-19 09:00N 29°37' W 095°01'0 0.4
2018-May-19 08:30N 29°37' W 095°01'0 0.0
2018-May-19 08:00N 29°37' W 095°01'0 0.0
2018-May-19 07:30N 29°37' W 095°01'0 0.0
2018-May-19 07:00N 29°37' W 095°01'1 1.6
2018-May-19 06:30N 29°37' W 095°01'0 0.2
2018-May-19 06:00N 29°37' W 095°01'1 1.8
2018-May-19 05:31N 29°37' W 095°00'0 0.1
2018-May-19 04:59N 29°37' W 095°00'0 0.0
2018-May-19 04:29N 29°37' W 095°00'0 0.0
2018-May-19 03:59N 29°37' W 095°00'0 0.0
2018-May-19 03:29N 29°37' W 095°00'1 2.0
2018-May-19 03:00N 29°37' W 095°01'1 1.9
2018-May-19 02:29N 29°37' W 095°00'0 0.0
2018-May-19 01:59N 29°37' W 095°00'0 0.0
2018-May-19 01:29N 29°37' W 095°00'0 0.0
2018-May-19 00:59N 29°37' W 095°00'0 0.0
2018-May-19 00:29N 29°37' W 095°00'0 0.0
2018-May-18 23:59N 29°37' W 095°00'0 0.0
2018-May-18 23:25N 29°37' W 095°00'0 0.4
2018-May-18 23:00N 29°37' W 095°00'0 0.0
2018-May-18 22:30N 29°37' W 095°00'0 0.0
2018-May-18 21:59N 29°37' W 095°00'1 3.2
2018-May-18 21:30N 29°37' W 094°58'4 8.7
2018-May-18 21:00N 29°41' W 094°59'3 3.6
2018-May-18 20:12N 29°43' W 095°01'0 0.0
2018-May-18 19:54N 29°43' W 095°01'1 2.6
2018-May-18 19:28N 29°42' W 095°01'0 0.0
2018-May-18 18:51N 29°42' W 095°01'0 0.0
2018-May-18 18:26N 29°42' W 095°01'0 0.0
2018-May-18 17:53N 29°42' W 095°01'2 3.8
2018-May-18 17:15N 29°44' W 095°03'3 0.6
2018-May-18 12:02N 29°44' W 095°07'0 0.0
2018-May-18 11:00N 29°45' W 095°07'0 0.0
2018-May-18 10:27N 29°45' W 095°07'0 0.0
2018-May-18 09:45N 29°45' W 095°07'0 0.0
2018-May-18 09:30N 29°45' W 095°07'0 0.0
2018-May-18 08:57N 29°45' W 095°07'0 0.0
2018-May-18 08:24N 29°45' W 095°07'0 0.0
2018-May-18 07:57N 29°45' W 095°07'1 1.6
2018-May-18 07:30N 29°45' W 095°06'0 0.8
2018-May-18 07:00N 29°45' W 095°06'1 2.1
2018-May-18 06:30N 29°45' W 095°07'0 0.0
2018-May-18 05:58N 29°45' W 095°07'0 0.0
2018-May-18 05:22N 29°45' W 095°07'1 1.5
2018-May-18 05:00N 29°45' W 095°06'0 0.4
2018-May-18 04:29N 29°45' W 095°06'1 1.1
2018-May-18 03:58N 29°45' W 095°06'0 0.0
2018-May-18 03:30N 29°45' W 095°06'1 2.7
2018-May-18 03:00N 29°44' W 095°07'0 0.6
2018-May-18 02:26N 29°44' W 095°08'0 0.4
2018-May-18 02:00N 29°44' W 095°08'1 2.1
2018-May-18 01:30N 29°44' W 095°09'0 0.3
2018-May-18 00:58N 29°44' W 095°09'0 0.1
2018-May-18 00:30N 29°44' W 095°09'0 0.2
2018-May-18 00:00N 29°44' W 095°09'0 0.0
2018-May-17 18:58N 29°44' W 095°09'5 2.4
2018-May-17 17:06N 29°44' W 095°14'3 5.4
2018-May-17 16:37N 29°45' W 095°11'1 6.0
2018-May-17 16:27N 29°45' W 095°10'4 1.4
2018-May-17 13:38N 29°45' W 095°06'1 5.2
2018-May-17 13:30N 29°46' W 095°05'4 7.7
2018-May-17 13:00N 29°44' W 095°01'0 0.0
2018-May-17 12:28N 29°44' W 095°01'0 0.2
2018-May-17 10:53N 29°43' W 095°01'0 0.0
2018-May-17 10:21N 29°43' W 095°01'1 2.0
2018-May-17 10:00N 29°43' W 095°01'1 1.3
2018-May-17 09:17N 29°44' W 095°01'0 0.0
2018-May-17 05:53N 29°44' W 095°01'0 0.0
2018-May-17 05:11N 29°44' W 095°01'0 0.0
2018-May-17 04:50N 29°44' W 095°01'0 0.0
2018-May-17 04:17N 29°44' W 095°01'0 0.0
2018-May-17 03:53N 29°44' W 095°01'0 0.0
2018-May-17 03:29N 29°44' W 095°01'2 3.7
2018-May-17 03:01N 29°42' W 095°00'5 9.8
2018-May-17 02:30N 29°38' W 094°58'2 3.7
2018-May-17 01:59N 29°37' W 094°59'0 0.5
2018-May-17 01:30N 29°37' W 094°59'3 6.8
2018-May-17 01:00N 29°40' W 094°59'3 0.5
2018-May-16 19:04N 29°42' W 095°01'0 1.4
2018-May-16 19:00N 29°42' W 095°01'0 0.1
2018-May-16 17:48N 29°42' W 095°01'1 0.4
2018-May-16 14:03N 29°44' W 095°01'0 0.0
2018-May-16 14:00N 29°44' W 095°01'0 0.0
2018-May-16 13:30N 29°44' W 095°01'0 0.0
2018-May-16 12:54N 29°44' W 095°01'0 0.0
2018-May-16 12:30N 29°44' W 095°01'0 0.3
2018-May-16 12:00N 29°43' W 095°01'0 0.3
2018-May-16 11:31N 29°44' W 095°01'0 0.0
2018-May-16 10:59N 29°44' W 095°01'0 0.0
2018-May-16 10:29N 29°44' W 095°01'3 5.0
2018-May-16 09:58N 29°45' W 095°04'2 4.1
2018-May-16 09:30N 29°45' W 095°06'0 0.4
2018-May-16 09:00N 29°45' W 095°06'0 0.0
2018-May-16 08:30N 29°45' W 095°06'2 4.4
2018-May-16 08:01N 29°44' W 095°08'1 1.7
2018-May-16 07:30N 29°44' W 095°09'2 3.9
2018-May-16 07:00N 29°45' W 095°12'1 1.4
2018-May-16 06:28N 29°44' W 095°12'0 0.0
2018-May-16 05:58N 29°44' W 095°12'0 0.0
2018-May-16 05:22N 29°44' W 095°12'0 0.0
2018-May-16 04:58N 29°44' W 095°12'0 0.0
2018-May-16 04:16N 29°44' W 095°12'0 0.0
2018-May-16 03:57N 29°44' W 095°12'1 2.8
2018-May-16 03:29N 29°45' W 095°11'0 0.1
2018-May-16 03:01N 29°45' W 095°11'1 1.2
2018-May-16 02:30N 29°45' W 095°10'1 0.1
2018-May-15 21:56N 29°45' W 095°11'0 0.1
2018-May-15 21:22N 29°45' W 095°11'2 0.5
2018-May-15 18:23N 29°44' W 095°09'1 0.7
2018-May-15 16:50N 29°45' W 095°10'0 0.0
2018-May-15 14:50N 29°45' W 095°10'0 0.5
2018-May-15 14:28N 29°45' W 095°10'0 0.0
2018-May-15 14:00N 29°45' W 095°10'2 3.1
2018-May-15 13:30N 29°44' W 095°09'2 1.7
2018-May-15 12:34N 29°44' W 095°07'0 0.0
2018-May-15 12:22N 29°44' W 095°07'0 0.0
2018-May-15 11:49N 29°44' W 095°07'0 0.0
2018-May-15 11:25N 29°44' W 095°07'0 0.0
2018-May-15 10:58N 29°44' W 095°07'0 0.0
2018-May-15 10:28N 29°44' W 095°07'0 0.0
2018-May-15 09:55N 29°44' W 095°07'0 0.0
2018-May-15 09:28N 29°44' W 095°07'0 0.2
2018-May-15 09:00N 29°44' W 095°07'0 0.0
2018-May-15 04:02N 29°44' W 095°07'0 0.0
2018-May-15 03:47N 29°44' W 095°07'0 0.0
2018-May-15 03:20N 29°44' W 095°07'1 1.9
2018-May-15 03:00N 29°45' W 095°06'3 5.3
2018-May-15 02:30N 29°44' W 095°03'2 3.7
2018-May-15 02:00N 29°44' W 095°01'0 0.2
2018-May-15 01:23N 29°44' W 095°01'6 0.4
2018-May-14 11:23N 29°44' W 095°08'2 1.6
2018-May-14 10:15N 29°45' W 095°10'0 0.0
2018-May-14 04:30N 29°45' W 095°10'6 2.1
2018-May-14 01:49N 29°44' W 095°03'2 6.1
2018-May-14 01:28N 29°43' W 095°01'0 0.9
2018-May-14 00:55N 29°42' W 095°01'0 0.0
2018-May-14 00:26N 29°42' W 095°01'1 1.4
2018-May-13 23:25N 29°44' W 095°01'1 2.7
2018-May-13 23:00N 29°44' W 095°03'2 4.3
2018-May-13 22:30N 29°42' W 095°01'0 0.0
2018-May-13 21:57N 29°42' W 095°01'0 0.0
2018-May-13 21:12N 29°42' W 095°01'0 1.5
2018-May-13 21:00N 29°42' W 095°01'5 9.3
2018-May-13 20:30N 29°38' W 094°58'3 5.0
2018-May-13 20:00N 29°37' W 095°00'1 1.8
2018-May-13 19:31N 29°37' W 095°01'1 1.6
2018-May-13 19:00N 29°37' W 095°00'0 0.4
2018-May-13 18:29N 29°37' W 095°01'0 0.0
2018-May-13 17:59N 29°37' W 095°01'0 0.0
2018-May-13 17:29N 29°37' W 095°01'0 0.0
2018-May-13 16:59N 29°37' W 095°01'0 0.4
2018-May-13 16:30N 29°37' W 095°01'1 1.2
2018-May-13 16:00N 29°37' W 095°01'1 2.5
2018-May-13 15:30N 29°37' W 095°00'1 2.4
2018-May-13 15:00N 29°37' W 094°59'4 7.5
2018-May-13 14:30N 29°41' W 094°59'0 0.9
2018-May-13 13:59N 29°41' W 094°59'0 0.0
2018-May-13 13:29N 29°41' W 094°59'0 0.0
2018-May-13 12:56N 29°41' W 094°59'0 0.0
2018-May-13 12:26N 29°41' W 094°59'1 1.6
2018-May-13 12:00N 29°41' W 094°60'1 1.0
2018-May-13 11:25N 29°41' W 095°01'0 0.8
2018-May-13 10:58N 29°41' W 095°00'0 0.0
2018-May-13 10:30N 29°41' W 095°00'1 1.5
2018-May-13 10:00N 29°41' W 094°59'4 6.8
2018-May-13 09:22N 29°44' W 095°03'0 0.3
2018-May-13 08:29N 29°44' W 095°03'2 3.7
2018-May-13 07:54N 29°43' W 095°01'1 0.4
2018-May-13 06:22N 29°42' W 095°01'3 2.1
2018-May-13 05:10N 29°44' W 095°03'3 0.8
2018-May-13 01:33N 29°45' W 095°07'0 0.0
2018-May-13 01:18N 29°45' W 095°07'0 0.0
2018-May-13 01:00N 29°45' W 095°07'0 0.0
2018-May-13 00:30N 29°45' W 095°07'0 0.0
2018-May-13 00:00N 29°45' W 095°07'0 0.0
2018-May-12 23:30N 29°45' W 095°07'0 0.0
2018-May-12 23:00N 29°45' W 095°07'0 0.1
2018-May-12 20:42N 29°44' W 095°07'0 0.2
2018-May-12 20:30N 29°44' W 095°07'1 1.1
2018-May-12 20:00N 29°44' W 095°08'2 3.0
2018-May-12 19:30N 29°44' W 095°09'1 0.4
2018-May-12 17:08N 29°45' W 095°10'0 2.0
2018-May-12 16:59N 29°45' W 095°10'0 0.1
2018-May-12 13:16N 29°45' W 095°10'3 7.0
2018-May-12 12:51N 29°44' W 095°13'0 0.2
2018-May-12 12:20N 29°44' W 095°14'1 0.1
2018-May-12 02:25N 29°43' W 095°15'5 4.3
2018-May-12 01:18N 29°44' W 095°09'2 7.2
2018-May-12 01:00N 29°44' W 095°07'0 0.7
2018-May-12 00:24N 29°44' W 095°07'0 0.0
2018-May-11 23:57N 29°44' W 095°07'0 0.0
2018-May-11 23:30N 29°44' W 095°07'0 0.0
2018-May-11 23:00N 29°44' W 095°07'0 0.0
2018-May-11 22:30N 29°44' W 095°07'  
Track history (hours):
 
Tides and Currents Weather Stations Pressure Air Temp Water Temp Dewpoint Dewpoint Depression Visibility Wind Speed Wind Dir Waves Ship Positions

Captain W. D. Haden

Owner: G & H Towing Company, GALVESTON, TX. More information available from US FCC via Universal Licensing System and Coast Guard Vessel Documentation Center.

Last reported at 2018-May-21 22:06 UTC. Time now 2018-May-21 22:31 UTC.
Position N 29°45' W 095°10'.

Length 30 m; draft 6 m.

Type: Tug. MMSI: 366921540.

Date/timePositionNaut miles runAvg speedWind from/ knotsBaromVisibWave heightAir tempDewpointWater temp
2018-May-21 22:06N 29°45' W 095°10'0 1.7
2018-May-21 21:59N 29°45' W 095°10'0 0.2
2018-May-21 21:29N 29°45' W 095°10'0 0.4
2018-May-21 20:39N 29°45' W 095°10'0 1.9
2018-May-21 20:30N 29°45' W 095°11'1 1.2
2018-May-21 19:48N 29°45' W 095°10'1 0.2
2018-May-21 14:01N 29°44' W 095°09'0 8.3
2018-May-21 13:59N 29°44' W 095°09'4 2.8
2018-May-21 12:32N 29°44' W 095°14'0 6.7
2018-May-21 12:30N 29°44' W 095°13'3 0.5
2018-May-21 06:42N 29°45' W 095°11'0 0.1
2018-May-21 03:31N 29°45' W 095°10'0 0.0
2018-May-21 03:22N 29°45' W 095°10'3 0.9
2018-May-21 00:28N 29°44' W 095°13'1 1.7
2018-May-20 23:59N 29°43' W 095°14'2 0.6
2018-May-20 20:18N 29°44' W 095°12'1 0.3
2018-May-20 16:05N 29°45' W 095°10'1 7.1
2018-May-20 16:00N 29°45' W 095°10'3 2.4
2018-May-20 14:49N 29°45' W 095°07'0 0.0
2018-May-20 14:29N 29°45' W 095°07'0 0.0
2018-May-20 12:30N 29°45' W 095°07'0 0.0
2018-May-20 07:47N 29°44' W 095°07'0 0.1
2018-May-20 06:38N 29°45' W 095°07'0 0.0
2018-May-20 04:48N 29°44' W 095°07'0 0.0
2018-May-20 00:38N 29°44' W 095°07'2 8.2
2018-May-20 00:25N 29°44' W 095°09'3 2.0
2018-May-19 22:59N 29°44' W 095°12'1 2.7
2018-May-19 22:28N 29°45' W 095°10'0 0.0
2018-May-19 20:02N 29°45' W 095°10'0 0.9
2018-May-19 19:59N 29°45' W 095°11'3 2.3
2018-May-19 18:44N 29°44' W 095°07'3 0.4
2018-May-19 11:47N 29°46' W 095°05'3 8.7
2018-May-19 11:30N 29°44' W 095°03'4 7.9
2018-May-19 11:00N 29°42' W 094°59'5 9.6
2018-May-19 10:31N 29°37' W 094°57'4 6.9
2018-May-19 09:59N 29°37' W 095°02'0 0.0
2018-May-19 09:30N 29°37' W 095°02'1 1.4
2018-May-19 09:00N 29°37' W 095°01'0 0.4
2018-May-19 08:30N 29°37' W 095°01'0 0.0
2018-May-19 08:00N 29°37' W 095°01'0 0.0
2018-May-19 07:30N 29°37' W 095°01'0 0.0
2018-May-19 07:00N 29°37' W 095°01'1 1.6
2018-May-19 06:30N 29°37' W 095°01'0 0.2
2018-May-19 06:00N 29°37' W 095°01'1 1.8
2018-May-19 05:31N 29°37' W 095°00'0 0.1
2018-May-19 04:59N 29°37' W 095°00'0 0.0
2018-May-19 04:29N 29°37' W 095°00'0 0.0
2018-May-19 03:59N 29°37' W 095°00'0 0.0
2018-May-19 03:29N 29°37' W 095°00'1 2.0
2018-May-19 03:00N 29°37' W 095°01'1 1.9
2018-May-19 02:29N 29°37' W 095°00'0 0.0
2018-May-19 01:59N 29°37' W 095°00'0 0.0
2018-May-19 01:29N 29°37' W 095°00'0 0.0
2018-May-19 00:59N 29°37' W 095°00'0 0.0
2018-May-19 00:29N 29°37' W 095°00'0 0.0
2018-May-18 23:59N 29°37' W 095°00'0 0.0
2018-May-18 23:25N 29°37' W 095°00'0 0.4
2018-May-18 23:00N 29°37' W 095°00'0 0.0
2018-May-18 22:30N 29°37' W 095°00'0 0.0
2018-May-18 21:59N 29°37' W 095°00'1 3.2
2018-May-18 21:30N 29°37' W 094°58'4 8.7
2018-May-18 21:00N 29°41' W 094°59'3 3.6
2018-May-18 20:12N 29°43' W 095°01'0 0.0
2018-May-18 19:54N 29°43' W 095°01'1 2.6
2018-May-18 19:28N 29°42' W 095°01'0 0.0
2018-May-18 18:51N 29°42' W 095°01'0 0.0
2018-May-18 18:26N 29°42' W 095°01'0 0.0
2018-May-18 17:53N 29°42' W 095°01'2 3.8
2018-May-18 17:15N 29°44' W 095°03'3 0.6
2018-May-18 12:02N 29°44' W 095°07'0 0.0
2018-May-18 11:00N 29°45' W 095°07'0 0.0
2018-May-18 10:27N 29°45' W 095°07'0 0.0
2018-May-18 09:45N 29°45' W 095°07'0 0.0
2018-May-18 09:30N 29°45' W 095°07'0 0.0
2018-May-18 08:57N 29°45' W 095°07'0 0.0
2018-May-18 08:24N 29°45' W 095°07'0 0.0
2018-May-18 07:57N 29°45' W 095°07'1 1.6
2018-May-18 07:30N 29°45' W 095°06'0 0.8
2018-May-18 07:00N 29°45' W 095°06'1 2.1
2018-May-18 06:30N 29°45' W 095°07'0 0.0
2018-May-18 05:58N 29°45' W 095°07'0 0.0
2018-May-18 05:22N 29°45' W 095°07'1 1.5
2018-May-18 05:00N 29°45' W 095°06'0 0.4
2018-May-18 04:29N 29°45' W 095°06'1 1.1
2018-May-18 03:58N 29°45' W 095°06'0 0.0
2018-May-18 03:30N 29°45' W 095°06'1 2.7
2018-May-18 03:00N 29°44' W 095°07'0 0.6
2018-May-18 02:26N 29°44' W 095°08'0 0.4
2018-May-18 02:00N 29°44' W 095°08'1 2.1
2018-May-18 01:30N 29°44' W 095°09'0 0.3
2018-May-18 00:58N 29°44' W 095°09'0 0.1
2018-May-18 00:30N 29°44' W 095°09'0 0.2
2018-May-18 00:00N 29°44' W 095°09'0 0.0
2018-May-17 18:58N 29°44' W 095°09'5 2.4
2018-May-17 17:06N 29°44' W 095°14'3 5.4
2018-May-17 16:37N 29°45' W 095°11'1 6.0
2018-May-17 16:27N 29°45' W 095°10'4 1.4
2018-May-17 13:38N 29°45' W 095°06'1 5.2
2018-May-17 13:30N 29°46' W 095°05'4 7.7
2018-May-17 13:00N 29°44' W 095°01'0 0.0
2018-May-17 12:28N 29°44' W 095°01'0 0.2
2018-May-17 10:53N 29°43' W 095°01'0 0.0
2018-May-17 10:21N 29°43' W 095°01'1 2.0
2018-May-17 10:00N 29°43' W 095°01'1 1.3
2018-May-17 09:17N 29°44' W 095°01'0 0.0
2018-May-17 05:53N 29°44' W 095°01'0 0.0
2018-May-17 05:11N 29°44' W 095°01'0 0.0
2018-May-17 04:50N 29°44' W 095°01'0 0.0
2018-May-17 04:17N 29°44' W 095°01'0 0.0
2018-May-17 03:53N 29°44' W 095°01'0 0.0
2018-May-17 03:29N 29°44' W 095°01'2 3.7
2018-May-17 03:01N 29°42' W 095°00'5 9.8
2018-May-17 02:30N 29°38' W 094°58'2 3.7
2018-May-17 01:59N 29°37' W 094°59'0 0.5
2018-May-17 01:30N 29°37' W 094°59'3 6.8
2018-May-17 01:00N 29°40' W 094°59'3 0.5
2018-May-16 19:04N 29°42' W 095°01'0 1.4
2018-May-16 19:00N 29°42' W 095°01'0 0.1
2018-May-16 17:48N 29°42' W 095°01'1 0.4
2018-May-16 14:03N 29°44' W 095°01'0 0.0
2018-May-16 14:00N 29°44' W 095°01'0 0.0
2018-May-16 13:30N 29°44' W 095°01'0 0.0
2018-May-16 12:54N 29°44' W 095°01'0 0.0
2018-May-16 12:30N 29°44' W 095°01'0 0.3
2018-May-16 12:00N 29°43' W 095°01'0 0.3
2018-May-16 11:31N 29°44' W 095°01'0 0.0
2018-May-16 10:59N 29°44' W 095°01'0 0.0
2018-May-16 10:29N 29°44' W 095°01'3 5.0
2018-May-16 09:58N 29°45' W 095°04'2 4.1
2018-May-16 09:30N 29°45' W 095°06'0 0.4
2018-May-16 09:00N 29°45' W 095°06'0 0.0
2018-May-16 08:30N 29°45' W 095°06'2 4.4
2018-May-16 08:01N 29°44' W 095°08'1 1.7
2018-May-16 07:30N 29°44' W 095°09'2 3.9
2018-May-16 07:00N 29°45' W 095°12'1 1.4
2018-May-16 06:28N 29°44' W 095°12'0 0.0
2018-May-16 05:58N 29°44' W 095°12'0 0.0
2018-May-16 05:22N 29°44' W 095°12'0 0.0
2018-May-16 04:58N 29°44' W 095°12'0 0.0
2018-May-16 04:16N 29°44' W 095°12'0 0.0
2018-May-16 03:57N 29°44' W 095°12'1 2.8
2018-May-16 03:29N 29°45' W 095°11'0 0.1
2018-May-16 03:01N 29°45' W 095°11'1 1.2
2018-May-16 02:30N 29°45' W 095°10'1 0.1
2018-May-15 21:56N 29°45' W 095°11'0 0.1
2018-May-15 21:22N 29°45' W 095°11'2 0.5
2018-May-15 18:23N 29°44' W 095°09'1 0.7
2018-May-15 16:50N 29°45' W 095°10'0 0.0
2018-May-15 14:50N 29°45' W 095°10'0 0.5
2018-May-15 14:28N 29°45' W 095°10'0 0.0
2018-May-15 14:00N 29°45' W 095°10'2 3.1
2018-May-15 13:30N 29°44' W 095°09'2 1.7
2018-May-15 12:34N 29°44' W 095°07'0 0.0
2018-May-15 12:22N 29°44' W 095°07'0 0.0
2018-May-15 11:49N 29°44' W 095°07'0 0.0
2018-May-15 11:25N 29°44' W 095°07'0 0.0
2018-May-15 10:58N 29°44' W 095°07'0 0.0
2018-May-15 10:28N 29°44' W 095°07'0 0.0
2018-May-15 09:55N 29°44' W 095°07'0 0.0
2018-May-15 09:28N 29°44' W 095°07'0 0.2
2018-May-15 09:00N 29°44' W 095°07'0 0.0
2018-May-15 04:02N 29°44' W 095°07'0 0.0
2018-May-15 03:47N 29°44' W 095°07'0 0.0
2018-May-15 03:20N 29°44' W 095°07'1 1.9
2018-May-15 03:00N 29°45' W 095°06'3 5.3
2018-May-15 02:30N 29°44' W 095°03'2 3.7
2018-May-15 02:00N 29°44' W 095°01'0 0.2
2018-May-15 01:23N 29°44' W 095°01'6 0.4
2018-May-14 11:23N 29°44' W 095°08'2 1.6
2018-May-14 10:15N 29°45' W 095°10'0 0.0
2018-May-14 04:30N 29°45' W 095°10'6 2.1
2018-May-14 01:49N 29°44' W 095°03'2 6.1
2018-May-14 01:28N 29°43' W 095°01'0 0.9
2018-May-14 00:55N 29°42' W 095°01'0 0.0
2018-May-14 00:26N 29°42' W 095°01'1 1.4
2018-May-13 23:25N 29°44' W 095°01'1 2.7
2018-May-13 23:00N 29°44' W 095°03'2 4.3
2018-May-13 22:30N 29°42' W 095°01'0 0.0
2018-May-13 21:57N 29°42' W 095°01'0 0.0
2018-May-13 21:12N 29°42' W 095°01'0 1.5
2018-May-13 21:00N 29°42' W 095°01'5 9.3
2018-May-13 20:30N 29°38' W 094°58'3 5.0
2018-May-13 20:00N 29°37' W 095°00'1 1.8
2018-May-13 19:31N 29°37' W 095°01'1 1.6
2018-May-13 19:00N 29°37' W 095°00'0 0.4
2018-May-13 18:29N 29°37' W 095°01'0 0.0
2018-May-13 17:59N 29°37' W 095°01'0 0.0
2018-May-13 17:29N 29°37' W 095°01'0 0.0
2018-May-13 16:59N 29°37' W 095°01'0 0.4
2018-May-13 16:30N 29°37' W 095°01'1 1.2
2018-May-13 16:00N 29°37' W 095°01'1 2.5
2018-May-13 15:30N 29°37' W 095°00'1 2.4
2018-May-13 15:00N 29°37' W 094°59'4 7.5
2018-May-13 14:30N 29°41' W 094°59'0 0.9
2018-May-13 13:59N 29°41' W 094°59'0 0.0
2018-May-13 13:29N 29°41' W 094°59'0 0.0
2018-May-13 12:56N 29°41' W 094°59'0 0.0
2018-May-13 12:26N 29°41' W 094°59'1 1.6
2018-May-13 12:00N 29°41' W 094°60'1 1.0
2018-May-13 11:25N 29°41' W 095°01'0 0.8
2018-May-13 10:58N 29°41' W 095°00'0 0.0
2018-May-13 10:30N 29°41' W 095°00'1 1.5
2018-May-13 10:00N 29°41' W 094°59'4 6.8
2018-May-13 09:22N 29°44' W 095°03'0 0.3
2018-May-13 08:29N 29°44' W 095°03'2 3.7
2018-May-13 07:54N 29°43' W 095°01'1 0.4
2018-May-13 06:22N 29°42' W 095°01'3 2.1
2018-May-13 05:10N 29°44' W 095°03'3 0.8
2018-May-13 01:33N 29°45' W 095°07'0 0.0
2018-May-13 01:18N 29°45' W 095°07'0 0.0
2018-May-13 01:00N 29°45' W 095°07'0 0.0
2018-May-13 00:30N 29°45' W 095°07'0 0.0
2018-May-13 00:00N 29°45' W 095°07'0 0.0
2018-May-12 23:30N 29°45' W 095°07'0 0.0
2018-May-12 23:00N 29°45' W 095°07'0 0.1
2018-May-12 20:42N 29°44' W 095°07'0 0.2
2018-May-12 20:30N 29°44' W 095°07'1 1.1
2018-May-12 20:00N 29°44' W 095°08'2 3.0
2018-May-12 19:30N 29°44' W 095°09'1 0.4
2018-May-12 17:08N 29°45' W 095°10'0 2.0
2018-May-12 16:59N 29°45' W 095°10'0 0.1
2018-May-12 13:16N 29°45' W 095°10'3 7.0
2018-May-12 12:51N 29°44' W 095°13'0 0.2
2018-May-12 12:20N 29°44' W 095°14'1 0.1
2018-May-12 02:25N 29°43' W 095°15'5 4.3
2018-May-12 01:18N 29°44' W 095°09'2 7.2
2018-May-12 01:00N 29°44' W 095°07'0 0.7
2018-May-12 00:24N 29°44' W 095°07'0 0.0
2018-May-11 23:57N 29°44' W 095°07'0 0.0
2018-May-11 23:30N 29°44' W 095°07'0 0.0
2018-May-11 23:00N 29°44' W 095°07'0 0.0
2018-May-11 22:30N 29°44' W 095°07'  

Dump ship's entire track history